Time;durP1;ratioP1;P1;durP2;ratioP2;P2;SDS_P1;SDS_P2;PMS_P1;PMS_P2;Temp;Humidity;BMP_temperature;BMP_pressure;BME280_temperature;BME280_humidity;BME280_pressure;Samples;Min_cycle;Max_cycle;Signal;HPM_P1;HPM_P2
2023/06/01 00:00:23;;;;;;;7.00;6.23;;;;;;;16.10;100.00;5607.13;6213972;23;20165;-56
2023/06/01 00:02:50;;;;;;;8.50;6.37;;;;;;;16.07;100.00;4315.28;6213830;23;20161;-56
2023/06/01 00:05:17;;;;;;;7.40;6.37;;;;;;;16.06;100.00;4638.00;6214151;23;20209;-56
2023/06/01 00:07:44;;;;;;;6.60;6.03;;;;;;;15.84;100.00;3667.22;6214162;23;20563;-56
2023/06/01 00:10:11;;;;;;;6.97;6.13;;;;;;;15.90;100.00;2055.22;6213849;23;20162;-56
2023/06/01 00:12:38;;;;;;;6.67;6.20;;;;;;;15.83;100.00;120.56;6213707;23;20241;-56
2023/06/01 00:15:06;;;;;;;6.60;6.20;;;;;;;15.87;100.00;-523.69;6214131;23;20492;-56
2023/06/01 00:17:34;;;;;;;8.20;6.63;;;;;;;15.94;100.00;-2456.22;6214196;23;20157;-56
2023/06/01 00:20:01;;;;;;;6.63;6.30;;;;;;;15.98;100.00;-3422.22;6214069;23;20158;-56
2023/06/01 00:22:34;;;;;;;6.77;6.17;;;;;;;15.94;100.00;-2134.16;6213672;23;20169;-57
2023/06/01 00:25:00;;;;;;;9.03;6.20;;;;;;;16.08;100.00;121.94;6214250;23;20181;-56
2023/06/01 00:27:27;;;;;;;6.83;6.23;;;;;;;16.08;100.00;1089.19;6213976;23;20615;-56
2023/06/01 00:29:54;;;;;;;6.30;5.87;;;;;;;16.09;100.00;1089.22;6213688;23;20189;-57
2023/06/01 00:32:21;;;;;;;6.87;6.30;;;;;;;16.06;100.00;1411.50;6214060;23;20204;-55
2023/06/01 00:34:49;;;;;;;6.73;6.30;;;;;;;15.98;100.00;4314.28;6213202;23;20160;-55
2023/06/01 00:37:16;;;;;;;7.23;6.67;;;;;;;16.05;100.00;4960.63;6213586;23;20197;-56
2023/06/01 00:39:44;;;;;;;7.93;7.33;;;;;;;16.12;100.00;3993.16;6213448;23;20237;-54
2023/06/01 00:42:11;;;;;;;8.27;7.63;;;;;;;16.05;100.00;1733.94;6217605;23;20196;-56
2023/06/01 00:44:38;;;;;;;7.13;6.70;;;;;;;16.06;100.00;1411.53;6243700;23;20180;-56
2023/06/01 00:47:07;;;;;;;8.57;7.97;;;;;;;15.99;100.00;3023.69;6244290;23;20161;-55
2023/06/01 00:49:35;;;;;;;8.97;7.63;;;;;;;16.00;100.00;4314.47;6243829;23;20203;-55
2023/06/01 00:52:03;;;;;;;11.27;10.50;;;;;;;16.05;100.00;2701.59;6244235;23;20157;-55
2023/06/01 00:54:30;;;;;;;18.40;12.37;;;;;;;15.95;100.00;-3100.25;6243808;23;20159;-56
2023/06/01 00:56:57;;;;;;;23.17;15.00;;;;;;;16.06;100.00;-5353.75;6244202;23;20157;-55
2023/06/01 00:59:24;;;;;;;16.23;14.50;;;;;;;15.97;100.00;-6961.97;6243754;23;20157;-56
2023/06/01 01:01:52;;;;;;;19.97;13.77;;;;;;;15.99;100.00;-7283.72;6244124;23;20597;-56
2023/06/01 01:04:25;;;;;;;24.17;14.00;;;;;;;15.84;100.00;-7282.75;6244437;23;20212;-56
2023/06/01 01:07:03;;;;;;;17.60;14.77;;;;;;;15.72;100.00;-6960.50;6243684;23;20156;-55
2023/06/01 01:09:40;;;;;;;17.40;13.43;;;;;;;15.48;100.00;-8244.34;6243696;23;20219;-55
2023/06/01 01:12:16;;;;;;;20.53;14.03;;;;;;;15.66;100.00;-7602.97;6243718;23;20160;-56
2023/06/01 01:14:50;;;;;;;19.57;15.30;;;;;;;15.71;100.00;-7924.72;6244139;23;20552;-56
2023/06/01 01:17:32;;;;;;;19.03;15.40;;;;;;;15.60;100.00;-9530.22;6244825;23;20155;-56
2023/06/01 01:20:08;;;;;;;31.40;17.13;;;;;;;15.66;100.00;-10494.25;6245746;23;20192;-55
2023/06/01 01:23:02;;;;;;;23.47;18.17;;;;;;;15.68;100.00;-13062.41;6245621;23;20157;-56
2023/06/01 01:26:01;;;;;;;29.93;17.17;;;;;;;15.53;100.00;-13060.22;6245644;23;20181;-55
2023/06/01 01:28:38;;;;;;;25.67;17.50;;;;;;;15.36;100.00;-12095.28;6245732;23;20157;-56
2023/06/01 01:31:07;;;;;;;20.17;17.43;;;;;;;15.30;100.00;-12735.91;6245880;23;20219;-56
2023/06/01 01:33:35;;;;;;;23.87;17.90;;;;;;;15.20;100.00;-13375.53;6245600;23;20167;-55
2023/06/01 01:36:03;;;;;;;29.97;17.87;;;;;;;15.09;100.00;-14335.28;6245813;23;20618;-56
2023/06/01 01:38:29;;;;;;;27.57;18.97;;;;;;;15.08;100.00;-15937.00;6245910;23;20587;-55
2023/06/01 01:40:56;;;;;;;27.03;17.47;;;;;;;15.12;100.00;-16898.34;6245490;23;20196;-56
2023/06/01 01:43:24;;;;;;;26.20;19.13;;;;;;;15.09;100.00;-16897.78;6245351;23;20655;-57
2023/06/01 01:45:58;;;;;;;26.40;20.00;;;;;;;15.06;100.00;-17217.28;6245348;23;20204;-57
2023/06/01 01:48:33;;;;;;;34.73;21.23;;;;;;;14.99;100.00;-17855.97;6245371;23;20156;-55
2023/06/01 01:51:08;;;;;;;33.97;22.77;;;;;;;14.72;100.00;-17849.53;6245384;23;20196;-55
2023/06/01 01:53:37;;;;;;;27.53;22.73;;;;;;;14.84;100.00;-17532.47;6245405;23;20156;-57
2023/06/01 01:56:05;;;;;;;43.43;26.77;;;;;;;15.02;100.00;-17216.50;6245857;23;20237;-56
2023/06/01 01:58:32;;;;;;;40.17;25.50;;;;;;;15.04;100.00;-17536.97;6245346;23;20164;-57
2023/06/01 02:01:02;;;;;;;48.17;29.40;;;;;;;15.04;100.00;-17216.97;6245725;23;20161;-55
2023/06/01 02:03:30;;;;;;;55.33;35.33;;;;;;;15.22;100.00;-17220.88;6245642;23;20559;-55
2023/06/01 02:05:56;;;;;;;67.30;40.90;;;;;;;15.32;100.00;-16902.75;6245217;23;20187;-57
2023/06/01 02:08:23;;;;;;;73.70;43.47;;;;;;;15.38;100.00;-16904.06;6245206;23;20167;-56
2023/06/01 02:10:50;;;;;;;80.37;44.47;;;;;;;15.38;100.00;-16904.06;6245197;23;20163;-55
2023/06/01 02:13:17;;;;;;;65.70;42.10;;;;;;;15.44;100.00;-16905.38;6245206;23;20161;-56
2023/06/01 02:15:44;;;;;;;75.23;43.27;;;;;;;15.18;100.00;-16579.41;6245096;23;20232;-56
2023/06/01 02:18:15;;;;;;;62.87;40.17;;;;;;;15.27;100.00;-15940.78;6246076;23;20159;-56
2023/06/01 02:20:42;;;;;;;53.17;35.17;;;;;;;15.16;100.00;-15618.19;6245063;23;20157;-55
2023/06/01 02:23:10;;;;;;;59.30;37.10;;;;;;;15.15;100.00;-15297.63;6245602;23;20667;-57
2023/06/01 02:25:36;;;;;;;54.97;36.97;;;;;;;15.11;100.00;-14976.41;6244997;23;20259;-58
2023/06/01 02:28:03;;;;;;;50.13;35.07;;;;;;;15.26;100.00;-14979.22;6244581;23;20176;-55
2023/06/01 02:30:30;;;;;;;57.17;36.17;;;;;;;15.30;100.00;-14659.56;6245218;23;20492;-55
2023/06/01 02:32:58;;;;;;;64.43;36.97;;;;;;;15.31;100.00;-14980.16;6245347;23;20601;-55
2023/06/01 02:35:28;;;;;;;55.87;38.67;;;;;;;15.33;100.00;-15301.03;6244971;23;20157;-56
2023/06/01 02:37:56;;;;;;;59.73;38.70;;;;;;;15.40;100.00;-14981.84;6245322;23;20680;-55
2023/06/01 02:40:23;;;;;;;53.63;37.17;;;;;;;15.33;100.00;-14980.53;6244907;23;20203;-56
2023/06/01 02:42:50;;;;;;;71.53;39.97;;;;;;;15.26;100.00;-14338.22;6244678;23;20200;-56
2023/06/01 02:45:17;;;;;;;66.27;40.10;;;;;;;15.13;100.00;-14335.91;6245048;23;20643;-56
2023/06/01 02:47:45;;;;;;;64.77;39.77;;;;;;;15.03;100.00;-15295.41;6245195;23;20497;-55
2023/06/01 02:50:12;;;;;;;63.53;41.07;;;;;;;15.17;100.00;-14657.09;6244799;23;20161;-55
2023/06/01 02:52:42;;;;;;;64.27;40.97;;;;;;;15.17;100.00;-14336.72;6245122;23;20157;-56
2023/06/01 02:55:09;;;;;;;69.50;47.03;;;;;;;15.04;100.00;-14334.50;6245047;23;20481;-55
2023/06/01 02:57:36;;;;;;;77.87;46.17;;;;;;;15.17;100.00;-14336.63;6244806;23;20157;-56
2023/06/01 03:00:04;;;;;;;74.77;45.10;;;;;;;14.99;100.00;-15614.81;6244467;23;20236;-56
2023/06/01 03:02:31;;;;;;;77.03;47.13;;;;;;;15.12;100.00;-14656.19;6244712;23;20164;-56
2023/06/01 03:04:58;;;;;;;73.90;45.63;;;;;;;15.24;100.00;-14337.88;6244581;23;20267;-55
2023/06/01 03:07:25;;;;;;;75.00;45.60;;;;;;;15.19;100.00;-13695.94;6244751;23;20158;-57
2023/06/01 03:09:53;;;;;;;83.13;46.13;;;;;;;15.26;100.00;-13055.88;6244668;23;20200;-62
2023/06/01 03:12:20;;;;;;;68.13;44.40;;;;;;;15.49;100.00;-12417.91;6244778;23;20163;-57
2023/06/01 03:14:47;;;;;;;71.40;47.00;;;;;;;15.95;100.00;-9533.72;6244883;23;20161;-56
2023/06/01 03:17:14;;;;;;;88.70;53.23;;;;;;;16.58;100.00;-4389.00;6244610;23;20244;-55
2023/06/01 03:19:41;;;;;;;75.77;49.20;;;;;;;16.72;100.00;7879.56;6244539;23;20156;-56
2023/06/01 03:22:08;;;;;;;71.60;48.07;;;;;;;17.21;100.00;18913.13;6244903;23;20232;-56
2023/06/01 03:24:36;;;;;;;76.27;48.50;;;;;;;17.60;100.00;29017.75;6244380;23;20157;-56
2023/06/01 03:27:05;;;;;;;69.03;46.80;;;;;;;17.60;100.00;32605.31;6244934;23;20161;-55
2023/06/01 03:29:32;;;;;;;71.00;46.93;;;;;;;17.54;100.00;35213.59;6244866;23;20157;-56
2023/06/01 03:32:00;;;;;;;71.23;45.67;;;;;;;17.34;100.00;31938.31;6244444;23;20188;-57
2023/06/01 03:34:27;;;;;;;80.30;44.40;;;;;;;17.55;100.00;35540.50;6244398;23;20192;-56
2023/06/01 03:36:54;;;;;;;68.23;43.10;;;;;;;17.76;100.00;42422.16;6244183;23;20157;-56
2023/06/01 03:39:21;;;;;;;66.50;41.10;;;;;;;17.84;100.00;52264.41;6244551;23;20619;-56
2023/06/01 03:41:48;;;;;;;54.73;39.90;;;;;;;18.01;100.00;53594.41;6217780;23;20169;-56
2023/06/01 03:44:16;;;;;;;60.73;39.40;;;;;;;18.15;100.00;61504.84;6244129;23;20196;-56
2023/06/01 03:46:43;;;;;;;58.90;41.27;;;;;;;18.35;100.00;72417.28;6244646;23;20180;-56
2023/06/01 03:49:10;;;;;;;61.50;40.90;;;;;;;18.46;100.00;89003.75;6244732;23;20461;-56
2023/06/01 03:51:37;;;;;;;55.67;41.23;;;;;;;18.63;100.00;104685.13;6245239;23;20207;-56
2023/06/01 03:54:04;;;;;;;56.57;40.67;;;;;;;18.76;100.00;107379.69;6244660;23;20565;-56
2023/06/01 03:56:31;;;;;;;60.87;39.70;;;;;;;18.90;100.00;117448.13;6244607;23;20642;-57
2023/06/01 03:59:00;;;;;;;57.40;38.80;;;;;;;19.01;100.00;125524.78;6244706;23;20599;-55
2023/06/01 04:01:29;;;;;;;57.57;39.17;;;;;;;19.20;100.00;135662.78;6244540;23;20175;-57
2023/06/01 04:03:56;;;;;;;51.20;38.50;;;;;;;19.39;100.00;148499.81;6244058;23;20157;-57
2023/06/01 04:06:23;;;;;;;50.57;36.63;;;;;;;19.52;100.00;150945.06;6244627;23;20181;-57
2023/06/01 04:08:55;;;;;;;49.33;34.87;;;;;;;19.68;100.00;150983.28;6244035;23;20229;-56
2023/06/01 04:11:23;;;;;;;50.90;34.00;;;;;;;19.77;100.00;151006.19;6244456;23;20235;-56
2023/06/01 04:13:50;;;;;;;44.83;30.83;;;;;;;19.93;100.00;151046.94;6244446;23;20491;-57
2023/06/01 04:16:16;;;;;;;38.53;30.40;;;;;;;19.91;100.00;151043.09;6244520;23;20159;-57
2023/06/01 04:18:45;;;;;;;31.20;27.00;;;;;;;19.90;100.00;151040.53;6217578;23;20175;-56
2023/06/01 04:21:12;;;;;;;29.60;26.47;;;;;;;19.94;100.00;151049.47;6244603;23;20239;-57
2023/06/01 04:23:39;;;;;;;34.30;25.87;;;;;;;20.16;100.00;151104.19;6244136;23;20235;-58
2023/06/01 04:26:06;;;;;;;32.77;25.20;;;;;;;20.21;100.00;151116.94;6217353;23;20256;-57
2023/06/01 04:28:33;;;;;;;28.53;24.20;;;;;;;20.35;100.00;151153.91;6244048;23;20157;-56
2023/06/01 04:31:02;;;;;;;30.93;24.57;;;;;;;20.28;100.00;151136.06;6217588;23;20238;-56
2023/06/01 04:33:29;;;;;;;36.67;24.30;;;;;;;20.44;100.00;151176.84;6243950;23;20196;-57
2023/06/01 04:35:57;;;;;;;35.87;22.93;;;;;;;20.71;100.00;151244.31;6244063;23;20153;-56
2023/06/01 04:38:24;;;;;;;40.25;21.85;;;;;;;20.81;100.00;151269.81;6244003;23;20157;-56
2023/06/01 04:40:53;;;;;;;26.13;20.85;;;;;;;20.97;100.00;151309.28;6243885;23;20161;-57
2023/06/01 04:43:20;;;;;;;24.67;21.10;;;;;;;21.17;100.00;151359.06;6243815;23;20287;-56
2023/06/01 04:45:47;;;;;;;22.53;20.00;;;;;;;21.31;100.00;151395.97;6243490;23;20180;-61
2023/06/01 04:48:16;;;;;;;23.48;18.85;;;;;;;21.53;100.00;151449.50;6244278;23;20187;-57
2023/06/01 04:50:44;;;;;;;22.30;20.02;;;;;;;21.57;100.00;151459.69;6244305;23;20157;-55
2023/06/01 04:53:12;;;;;;;20.15;18.27;;;;;;;21.50;100.00;151441.88;6243451;23;20161;-57
2023/06/01 04:55:40;;;;;;;25.88;20.00;;;;;;;21.63;100.00;151475.00;6244582;23;20161;-56
2023/06/01 04:58:07;;;;;;;34.03;21.15;;;;;;;21.80;100.00;151519.63;6244209;23;20168;-56
2023/06/01 05:00:34;;;;;;;29.52;20.40;;;;;;;21.85;100.00;151531.09;6244245;23;20157;-56
2023/06/01 05:03:02;;;;;;;21.05;19.08;;;;;;;21.91;100.00;151546.38;6243661;23;20161;-57
2023/06/01 05:05:29;;;;;;;33.63;21.65;;;;;;;22.08;100.00;151589.78;6243938;23;20658;-56
2023/06/01 05:07:56;;;;;;;34.60;22.00;;;;;;;22.23;100.00;151628.06;6244164;23;20210;-56
2023/06/01 05:10:25;;;;;;;27.40;22.25;;;;;;;22.39;100.00;151666.28;6217067;23;20167;-58
2023/06/01 05:12:52;;;;;;;27.98;23.05;;;;;;;22.50;100.00;151694.31;6244040;23;20157;-57
2023/06/01 05:15:19;;;;;;;39.42;23.17;;;;;;;22.35;100.00;151656.09;6243647;23;20219;-56
2023/06/01 05:17:47;;;;;;;27.85;18.08;;;;;;;22.30;100.00;151644.59;6243625;23;20161;-57
2023/06/01 05:20:14;;;;;;;24.27;18.25;;;;;;;22.58;100.00;151714.72;6243587;23;20161;-57
2023/06/01 05:22:41;;;;;;;39.85;18.52;;;;;;;22.88;100.00;151791.31;6243314;23;20244;-58
2023/06/01 05:25:21;;;;;;;57.08;18.38;;;;;;;23.05;100.00;151834.69;6243644;23;20240;-57
2023/06/01 05:27:49;;;;;;;24.33;17.67;;;;;;;23.18;100.00;151866.56;6244252;23;20556;-58
2023/06/01 05:30:17;;;;;;;23.00;15.93;;;;;;;23.38;100.00;151917.59;6243823;23;20157;-59
2023/06/01 05:32:44;;;;;;;20.60;16.60;;;;;;;23.50;100.00;151948.31;6244277;23;20612;-59
2023/06/01 05:35:11;;;;;;;19.92;16.38;;;;;;;23.75;100.00;152009.56;6244460;23;20157;-57
2023/06/01 05:37:38;;;;;;;26.95;16.02;;;;;;;23.91;100.00;152051.69;6243487;23;20161;-57
2023/06/01 05:40:07;;;;;;;26.05;15.25;;;;;;;24.28;100.00;152143.63;6243421;23;20157;-57
2023/06/01 05:42:35;;;;;;;29.65;15.80;;;;;;;24.37;100.00;152166.63;6242898;23;20220;-57
2023/06/01 05:45:04;;;;;;;33.13;15.48;;;;;;;24.71;100.00;152253.47;6243368;23;20169;-57
2023/06/01 05:47:31;;;;;;;26.08;15.35;;;;;;;25.04;100.00;152335.28;6242793;23;20181;-57
2023/06/01 05:49:58;;;;;;;23.08;14.45;;;;;;;25.14;100.00;152362.09;6243523;23;20648;-57
2023/06/01 05:52:27;;;;;;;28.15;15.23;;;;;;;25.21;100.00;152378.69;6243203;23;20161;-56
2023/06/01 05:54:54;;;;;;;29.90;14.93;;;;;;;25.46;100.00;152443.84;6243196;23;20628;-57
2023/06/01 05:57:21;;;;;;;27.02;14.75;;;;;;;25.79;100.00;152527.00;6243217;23;20157;-57
2023/06/01 05:59:48;;;;;;;31.17;16.63;;;;;;;26.04;100.00;152588.34;6243026;23;20163;-59
2023/06/01 06:02:16;;;;;;;28.92;16.92;;;;;;;25.94;100.00;152564.03;6244020;23;20157;-63
2023/06/01 06:04:44;;;;;;;27.67;15.32;;;;;;;26.09;100.00;152601.13;6245170;23;20160;-57
2023/06/01 06:07:11;;;;;;;37.80;16.80;;;;;;;26.09;100.00;152602.44;6245891;23;20203;-58
2023/06/01 06:09:38;;;;;;;31.55;16.88;;;;;;;26.32;100.00;152659.97;6245150;23;20192;-56
2023/06/01 06:12:07;;;;;;;24.08;17.75;;;;;;;26.88;100.00;152800.69;6245418;23;20568;-57
2023/06/01 06:14:38;;;;;;;19.35;17.35;;;;;;;27.18;100.00;152877.44;6245204;23;20157;-57
2023/06/01 06:17:05;;;;;;;34.72;19.30;;;;;;;27.42;100.00;152938.84;6245008;23;20160;-55
2023/06/01 06:19:34;;;;;;;21.33;18.75;;;;;;;27.83;100.00;153042.56;6244909;23;20156;-56
2023/06/01 06:22:01;;;;;;;42.08;19.42;;;;;;;28.20;100.00;153136.03;6244669;23;20175;-57
2023/06/01 06:24:28;;;;;;;26.48;18.85;;;;;;;28.37;100.00;153179.56;6245294;23;20495;-56
2023/06/01 06:26:54;;;;;;;21.60;19.20;;;;;;;28.46;100.00;153202.59;6245267;23;20658;-58
2023/06/01 06:29:21;;;;;;;30.73;20.17;;;;;;;28.52;100.00;153216.66;6245511;23;20164;-57
2023/06/01 06:31:49;;;;;;;23.63;20.55;;;;;;;28.63;100.00;153243.56;6245719;23;20153;-57
2023/06/01 06:34:16;;;;;;;23.35;20.50;;;;;;;28.56;100.00;153226.88;6245529;23;20585;-57
2023/06/01 06:36:44;;;;;;;26.27;20.67;;;;;;;28.81;100.00;153289.72;6244517;23;20157;-57
2023/06/01 06:39:11;;;;;;;24.38;21.92;;;;;;;28.59;100.00;153235.91;6245097;23;20169;-57
2023/06/01 06:41:38;;;;;;;38.08;24.30;;;;;;;29.00;100.00;153338.38;6245569;23;20184;-57
2023/06/01 06:44:06;;;;;;;43.28;23.92;;;;;;;29.46;100.00;153454.97;6244532;23;20675;-57
2023/06/01 06:46:33;;;;;;;29.60;21.23;;;;;;;30.26;100.00;153658.72;6244394;23;20180;-56
2023/06/01 06:48:59;;;;;;;22.67;20.30;;;;;;;31.02;91.55;153851.13;6244964;23;20243;-57
2023/06/01 06:51:26;;;;;;;26.77;19.20;;;;;;;31.07;85.61;153862.66;6244807;23;20206;-57
2023/06/01 06:53:55;;;;;;;30.38;19.38;;;;;;;30.66;86.28;153760.06;6244697;23;20168;-57
2023/06/01 06:56:22;;;;;;;28.55;20.20;;;;;;;30.79;86.75;153793.41;6244728;23;20160;-57
2023/06/01 06:58:49;;;;;;;19.90;17.95;;;;;;;30.34;90.10;153679.25;6244646;23;20163;-57
2023/06/01 07:01:15;;;;;;;23.10;15.75;;;;;;;30.07;95.51;153608.78;6244595;23;20157;-57
2023/06/01 07:03:42;;;;;;;15.48;13.95;;;;;;;29.82;97.06;153545.94;6244480;23;20157;-58
2023/06/01 07:06:09;;;;;;;21.02;12.93;;;;;;;29.32;100.00;153419.13;6244339;23;20184;-57
2023/06/01 07:08:38;;;;;;;17.35;13.40;;;;;;;29.30;96.35;153413.97;6244677;23;20240;-57
2023/06/01 07:11:07;;;;;;;15.88;12.70;;;;;;;29.34;97.10;153424.22;6244427;23;20165;-57
2023/06/01 07:13:34;;;;;;;17.13;11.13;;;;;;;29.35;98.25;153426.78;6244465;23;20156;-57
2023/06/01 07:16:04;;;;;;;12.43;11.25;;;;;;;29.42;95.35;153446.00;6244023;23;20230;-57
2023/06/01 07:18:31;;;;;;;14.85;12.10;;;;;;;29.24;98.06;153399.81;6244660;23;20505;-58
2023/06/01 07:20:58;;;;;;;20.55;11.85;;;;;;;29.37;97.27;153433.19;6218041;23;20234;-58
2023/06/01 07:23:26;;;;;;;18.25;11.77;;;;;;;29.25;98.89;153401.09;6244530;23;20153;-56
2023/06/01 07:25:52;;;;;;;20.13;11.95;;;;;;;29.22;97.40;153394.72;6244134;23;20172;-56
2023/06/01 07:28:25;;;;;;;11.48;10.52;;;;;;;29.12;98.01;153367.81;6244033;23;20165;-58
2023/06/01 07:30:52;;;;;;;11.40;10.25;;;;;;;29.28;93.55;153410.06;6243542;23;20223;-56
2023/06/01 07:33:19;;;;;;;13.85;10.50;;;;;;;29.26;90.92;153403.69;6244204;23;20236;-57
2023/06/01 07:35:46;;;;;;;11.13;10.05;;;;;;;29.16;92.22;153378.03;6244454;23;20279;-57
2023/06/01 07:38:13;;;;;;;9.98;9.00;;;;;;;29.28;92.22;153408.81;6217502;23;20207;-62
2023/06/01 07:40:40;;;;;;;13.07;9.05;;;;;;;29.27;90.19;153406.25;6244490;23;20157;-62
2023/06/01 07:43:07;;;;;;;9.73;8.88;;;;;;;29.27;91.43;153407.53;6243165;23;20211;-63
2023/06/01 07:45:35;;;;;;;9.85;8.18;;;;;;;29.46;88.25;153454.97;6242750;23;20164;-62
2023/06/01 07:48:02;;;;;;;8.48;7.65;;;;;;;29.62;85.56;153495.94;6242612;23;20251;-62
2023/06/01 07:50:30;;;;;;;14.60;7.47;;;;;;;29.61;84.42;153492.13;6243464;23;20556;-62
2023/06/01 07:53:01;;;;;;;7.32;6.60;;;;;;;29.41;85.30;153443.44;6243456;23;20156;-62
2023/06/01 07:55:28;;;;;;;7.68;6.43;;;;;;;29.71;80.83;153517.72;6242895;23;20218;-62
2023/06/01 07:57:55;;;;;;;10.73;5.68;;;;;;;29.66;76.38;153506.25;6243420;23;20593;-61
2023/06/01 08:00:22;;;;;;;8.32;5.57;;;;;;;29.77;72.75;153533.13;6243245;23;20157;-63
2023/06/01 08:02:51;;;;;;;9.38;6.05;;;;;;;29.98;74.08;153587.00;6242661;23;20242;-62
2023/06/01 08:05:18;;;;;;;5.78;5.28;;;;;;;30.16;75.56;153631.84;6243267;23;20164;-62
2023/06/01 08:07:46;;;;;;;5.05;4.68;;;;;;;30.40;70.50;153693.34;6242871;23;20291;-62
2023/06/01 08:10:14;;;;;;;7.22;5.70;;;;;;;30.90;67.26;153819.03;6242761;23;20508;-62
2023/06/01 08:12:42;;;;;;;5.22;4.45;;;;;;;30.86;66.84;153810.06;6242941;23;20196;-61
2023/06/01 08:15:11;;;;;;;6.68;5.35;;;;;;;30.89;66.70;153817.78;6242851;23;20153;-64
2023/06/01 08:17:38;;;;;;;5.63;5.13;;;;;;;30.92;64.10;153825.47;6242871;23;20154;-61
2023/06/01 08:20:10;;;;;;;12.20;4.55;;;;;;;30.89;56.62;153817.78;6242609;23;20168;-62
2023/06/01 08:22:37;;;;;;;4.95;4.50;;;;;;;30.74;57.26;153779.28;6242543;23;20161;-62
2023/06/01 08:25:05;;;;;;;5.15;4.65;;;;;;;30.64;59.91;153754.91;6242538;23;20157;-62
2023/06/01 08:27:32;;;;;;;4.57;4.18;;;;;;;30.42;53.99;153697.22;6243485;23;20181;-61
2023/06/01 08:29:59;;;;;;;3.50;3.20;;;;;;;30.27;47.21;153660.03;6243562;23;20243;-62
2023/06/01 08:32:26;;;;;;;5.15;3.63;;;;;;;30.02;46.25;153597.25;6242863;23;20474;-63
2023/06/01 08:34:53;;;;;;;6.75;4.38;;;;;;;29.98;50.73;153587.00;6243147;23;20588;-62
2023/06/01 08:37:21;;;;;;;3.28;3.08;;;;;;;29.54;47.69;153475.44;6242909;23;20219;-61
2023/06/01 08:39:48;;;;;;;13.65;5.57;;;;;;;29.45;49.66;153453.69;6242995;23;20244;-63
2023/06/01 08:42:21;;;;;;;4.47;3.78;;;;;;;28.42;51.93;153191.06;6185373;23;1335439;-62
2023/06/01 08:44:51;;;;;;;5.65;4.35;;;;;;;29.03;51.20;153346.03;6243772;23;20184;-62
2023/06/01 08:47:19;;;;;;;16.40;5.70;;;;;;;28.83;54.37;153294.81;6243637;23;20271;-62
2023/06/01 08:49:46;;;;;;;17.23;5.20;;;;;;;28.52;57.16;153216.66;6243524;23;20211;-61
2023/06/01 08:52:15;;;;;;;7.38;4.78;;;;;;;28.53;55.99;153220.50;6243405;23;20236;-61
2023/06/01 08:54:43;;;;;;;17.83;4.75;;;;;;;28.33;58.05;153169.31;6243520;23;20200;-62
2023/06/01 08:57:11;;;;;;;11.93;4.55;;;;;;;28.15;58.63;153123.22;6244104;23;20204;-62
2023/06/01 08:59:39;;;;;;;21.45;5.53;;;;;;;28.02;60.03;153089.88;6243434;23;20156;-62
2023/06/01 09:02:06;;;;;;;14.80;6.00;;;;;;;27.99;62.30;153082.22;6243991;23;20180;-61
2023/06/01 09:04:37;;;;;;;28.45;6.72;;;;;;;28.00;61.29;153086.06;6244167;23;20240;-67
2023/06/01 09:07:04;;;;;;;24.60;5.63;;;;;;;27.99;61.71;153082.22;6243949;23;20585;-62
2023/06/01 09:09:33;;;;;;;11.82;4.43;;;;;;;27.73;59.96;153016.94;6243482;23;20192;-62
2023/06/01 09:12:25;;;;;;;11.93;5.60;;;;;;;27.54;71.90;152969.56;6243741;23;20492;-62
2023/06/01 09:15:07;;;;;;;6.53;5.88;;;;;;;27.39;82.50;152931.16;6243783;23;20177;-60
2023/06/01 09:17:35;;;;;;;18.63;6.10;;;;;;;26.93;85.37;152813.47;6221193;23;20315;-62
2023/06/01 09:20:02;;;;;;;11.82;5.93;;;;;;;26.89;85.54;152804.53;6243712;23;20165;-59
2023/06/01 09:22:40;;;;;;;7.18;5.32;;;;;;;26.68;84.54;152752.06;6243927;23;20161;-58
2023/06/01 09:25:08;;;;;;;8.57;5.32;;;;;;;26.45;84.75;152693.22;6244305;23;20477;-60
2023/06/01 09:27:46;;;;;;;6.82;5.68;;;;;;;26.57;84.58;152722.63;6244014;23;20181;-60
2023/06/01 09:30:13;;;;;;;12.23;5.38;;;;;;;26.75;80.03;152769.94;6244103;23;20651;-58
2023/06/01 09:32:41;;;;;;;10.35;5.13;;;;;;;26.59;79.61;152729.03;6243471;23;20216;-59
2023/06/01 09:35:09;;;;;;;5.28;4.60;;;;;;;26.33;77.79;152663.81;6243920;23;20501;-59
2023/06/01 09:37:37;;;;;;;10.52;5.10;;;;;;;26.53;76.90;152713.66;6243713;23;20241;-58
2023/06/01 09:40:17;;;;;;;5.90;5.40;;;;;;;26.80;77.12;152782.75;6245402;23;20157;-59
2023/06/01 09:42:49;;;;;;;7.63;4.57;;;;;;;26.76;73.25;152772.53;6245028;23;20275;-59
2023/06/01 09:45:17;;;;;;;4.85;4.45;;;;;;;26.87;78.54;152799.41;6246369;23;20175;-59
2023/06/01 09:47:45;;;;;;;5.13;4.72;;;;;;;26.81;72.50;152785.31;6218827;23;20548;-58
2023/06/01 09:50:12;;;;;;;7.45;5.03;;;;;;;26.78;76.10;152776.31;6243875;23;20255;-58
2023/06/01 09:52:39;;;;;;;5.15;4.45;;;;;;;26.62;74.03;152736.69;6245674;23;20161;-59
2023/06/01 09:55:07;;;;;;;6.30;4.60;;;;;;;26.45;77.40;152693.22;6245253;23;20157;-59
2023/06/01 09:57:34;;;;;;;5.03;4.60;;;;;;;26.58;75.73;152726.47;6245484;23;20174;-59
2023/06/01 10:00:05;;;;;;;5.70;4.80;;;;;;;27.11;81.42;152859.53;6245206;23;20157;-58
2023/06/01 10:02:33;;;;;;;8.27;5.57;;;;;;;27.31;79.04;152910.69;6244743;23;20168;-59
2023/06/01 10:05:01;;;;;;;5.05;4.57;;;;;;;27.32;71.96;152913.28;6244625;23;20157;-59
2023/06/01 10:07:31;;;;;;;5.07;4.60;;;;;;;27.22;77.02;152887.66;6244814;23;20181;-59
2023/06/01 10:10:02;;;;;;;5.10;4.70;;;;;;;27.10;78.01;152856.97;6244857;23;20161;-59
2023/06/01 10:12:29;;;;;;;4.80;4.40;;;;;;;26.88;78.07;152800.69;6244744;23;20245;-59
2023/06/01 10:14:57;;;;;;;5.18;4.53;;;;;;;26.91;81.49;152808.34;6244688;23;20153;-59
2023/06/01 10:17:25;;;;;;;6.20;4.90;;;;;;;27.12;80.79;152862.06;6245080;23;20497;-59
2023/06/01 10:19:52;;;;;;;5.45;4.95;;;;;;;27.18;83.32;152877.44;6244540;23;20175;-58
2023/06/01 10:22:21;;;;;;;6.75;4.95;;;;;;;27.21;76.16;152886.38;6244714;23;20157;-59
2023/06/01 10:24:48;;;;;;;5.63;4.57;;;;;;;27.35;70.90;152919.66;6244707;23;20165;-59
2023/06/01 10:27:21;;;;;;;4.95;4.55;;;;;;;27.52;67.00;152963.22;6244895;23;20247;-59
2023/06/01 10:29:48;;;;;;;4.55;4.30;;;;;;;27.66;67.69;152999.03;6244882;23;20161;-58
2023/06/01 10:32:44;;;;;;;4.07;3.80;;;;;;;27.38;64.73;152928.59;6245064;23;20163;-58
2023/06/01 10:35:53;;;;;;;5.63;4.70;;;;;;;27.45;72.95;152946.53;6241477;23;20639;-60
2023/06/01 10:38:26;;;;;;;10.00;4.47;;;;;;;27.04;72.82;152842.88;6245341;23;20156;-61
2023/06/01 10:40:53;;;;;;;11.15;4.85;;;;;;;27.17;76.30;152874.88;6244719;23;20177;-58
2023/06/01 10:43:42;;;;;;;9.95;5.28;;;;;;;27.35;74.51;152919.66;6244550;23;20206;-57
2023/06/01 10:46:36;;;;;;;14.88;4.88;;;;;;;27.48;74.01;152954.25;6244883;23;20535;-58
2023/06/01 10:49:05;;;;;;;5.47;5.05;;;;;;;27.66;72.89;152999.03;6244239;23;20201;-58
2023/06/01 10:51:32;;;;;;;5.38;4.20;;;;;;;27.54;72.10;152968.34;6242920;23;20157;-58
2023/06/01 10:54:38;;;;;;;4.75;4.45;;;;;;;27.57;73.84;152976.00;6244510;23;20165;-58
2023/06/01 10:57:25;;;;;;;5.55;4.65;;;;;;;27.42;75.60;152938.84;6243774;23;20161;-59
2023/06/01 11:00:18;;;;;;;6.22;4.38;;;;;;;27.45;82.21;152945.25;6243809;23;20160;-58
2023/06/01 11:02:50;;;;;;;5.00;4.50;;;;;;;27.34;81.26;152918.38;6244377;23;20532;-58
2023/06/01 11:05:43;;;;;;;3.97;3.72;;;;;;;27.47;79.99;152951.69;6244671;23;20228;-57
2023/06/01 11:08:52;;;;;;;4.13;3.75;;;;;;;27.48;80.43;152954.25;6215884;23;20193;-60
2023/06/01 11:11:23;;;;;;;9.65;4.63;;;;;;;27.82;81.44;153038.69;6244233;23;20167;-58
2023/06/01 11:14:11;;;;;;;5.57;4.15;;;;;;;27.82;79.63;153038.69;6244233;23;20243;-59
2023/06/01 11:16:38;;;;;;;4.57;3.97;;;;;;;27.94;79.06;153070.69;6242879;23;20172;-58
2023/06/01 11:19:07;;;;;;;6.43;4.90;;;;;;;28.01;80.86;153087.31;6244504;23;20153;-59
2023/06/01 11:21:39;;;;;;;4.90;4.18;;;;;;;28.14;76.77;153120.66;6244248;23;20165;-59